sensor_id;sensor_type;location;lat;lon;timestamp;P1;durP1;ratioP1;P2;durP2;ratioP2
67191;SDS011;54120;53.504;49.426;2023-05-16T00:00:53;14.50;;;9.68;;
67191;SDS011;54120;53.504;49.426;2023-05-16T00:03:19;15.52;;;10.45;;
67191;SDS011;54120;53.504;49.426;2023-05-16T00:05:46;17.90;;;10.50;;
67191;SDS011;54120;53.504;49.426;2023-05-16T00:08:12;13.68;;;10.30;;
67191;SDS011;54120;53.504;49.426;2023-05-16T00:10:38;14.98;;;10.18;;
67191;SDS011;54120;53.504;49.426;2023-05-16T00:13:04;14.65;;;10.73;;
67191;SDS011;54120;53.504;49.426;2023-05-16T00:15:31;17.75;;;10.82;;
67191;SDS011;54120;53.504;49.426;2023-05-16T00:17:58;16.02;;;11.30;;
67191;SDS011;54120;53.504;49.426;2023-05-16T00:20:24;19.23;;;13.65;;
67191;SDS011;54120;53.504;49.426;2023-05-16T00:22:52;18.20;;;12.35;;
67191;SDS011;54120;53.504;49.426;2023-05-16T00:25:30;14.10;;;11.35;;
67191;SDS011;54120;53.504;49.426;2023-05-16T00:27:56;13.77;;;10.40;;
67191;SDS011;54120;53.504;49.426;2023-05-16T00:30:23;9.82;;;7.63;;
67191;SDS011;54120;53.504;49.426;2023-05-16T00:32:49;8.70;;;7.65;;
67191;SDS011;54120;53.504;49.426;2023-05-16T00:35:15;8.80;;;7.90;;
67191;SDS011;54120;53.504;49.426;2023-05-16T00:37:41;9.75;;;8.05;;
67191;SDS011;54120;53.504;49.426;2023-05-16T00:40:07;9.27;;;8.30;;
67191;SDS011;54120;53.504;49.426;2023-05-16T00:42:33;11.35;;;8.60;;
67191;SDS011;54120;53.504;49.426;2023-05-16T00:44:59;11.13;;;8.90;;
67191;SDS011;54120;53.504;49.426;2023-05-16T00:47:25;11.90;;;8.25;;
67191;SDS011;54120;53.504;49.426;2023-05-16T00:49:51;9.25;;;8.30;;
67191;SDS011;54120;53.504;49.426;2023-05-16T00:52:17;9.45;;;8.45;;
67191;SDS011;54120;53.504;49.426;2023-05-16T00:54:43;10.70;;;9.23;;
67191;SDS011;54120;53.504;49.426;2023-05-16T00:57:09;11.77;;;8.65;;
67191;SDS011;54120;53.504;49.426;2023-05-16T00:59:36;8.55;;;7.75;;
67191;SDS011;54120;53.504;49.426;2023-05-16T01:02:02;8.85;;;7.95;;
67191;SDS011;54120;53.504;49.426;2023-05-16T01:04:28;10.90;;;8.23;;
67191;SDS011;54120;53.504;49.426;2023-05-16T01:06:55;9.02;;;7.68;;
67191;SDS011;54120;53.504;49.426;2023-05-16T01:09:21;9.77;;;8.45;;
67191;SDS011;54120;53.504;49.426;2023-05-16T01:11:53;10.00;;;8.55;;
67191;SDS011;54120;53.504;49.426;2023-05-16T01:14:32;8.40;;;7.63;;
67191;SDS011;54120;53.504;49.426;2023-05-16T01:28:03;11.90;;;8.30;;
67191;SDS011;54120;53.504;49.426;2023-05-16T01:30:37;15.38;;;8.20;;
67191;SDS011;54120;53.504;49.426;2023-05-16T01:33:04;9.00;;;8.10;;
67191;SDS011;54120;53.504;49.426;2023-05-16T01:35:30;12.90;;;8.65;;
67191;SDS011;54120;53.504;49.426;2023-05-16T01:41:02;9.40;;;8.32;;
67191;SDS011;54120;53.504;49.426;2023-05-16T01:43:39;9.02;;;7.82;;
67191;SDS011;54120;53.504;49.426;2023-05-16T01:46:09;9.50;;;8.25;;
67191;SDS011;54120;53.504;49.426;2023-05-16T01:48:52;8.82;;;7.93;;
67191;SDS011;54120;53.504;49.426;2023-05-16T01:51:31;9.02;;;8.15;;
67191;SDS011;54120;53.504;49.426;2023-05-16T01:54:02;12.25;;;8.70;;
67191;SDS011;54120;53.504;49.426;2023-05-16T01:56:31;9.60;;;8.63;;
67191;SDS011;54120;53.504;49.426;2023-05-16T01:58:58;10.07;;;9.07;;
67191;SDS011;54120;53.504;49.426;2023-05-16T02:01:25;9.38;;;8.25;;
67191;SDS011;54120;53.504;49.426;2023-05-16T02:03:51;9.88;;;8.98;;
67191;SDS011;54120;53.504;49.426;2023-05-16T02:06:17;10.00;;;8.65;;
67191;SDS011;54120;53.504;49.426;2023-05-16T02:08:43;10.25;;;9.15;;
67191;SDS011;54120;53.504;49.426;2023-05-16T02:11:09;10.05;;;9.02;;
67191;SDS011;54120;53.504;49.426;2023-05-16T02:13:35;11.02;;;8.88;;
67191;SDS011;54120;53.504;49.426;2023-05-16T02:16:01;9.63;;;8.40;;
67191;SDS011;54120;53.504;49.426;2023-05-16T02:18:28;9.23;;;8.32;;
67191;SDS011;54120;53.504;49.426;2023-05-16T02:20:54;13.27;;;8.90;;
67191;SDS011;54120;53.504;49.426;2023-05-16T02:23:20;15.20;;;8.55;;
67191;SDS011;54120;53.504;49.426;2023-05-16T02:25:51;23.33;;;9.45;;
67191;SDS011;54120;53.504;49.426;2023-05-16T02:28:17;27.35;;;9.65;;
67191;SDS011;54120;53.504;49.426;2023-05-16T02:30:44;28.42;;;9.10;;
67191;SDS011;54120;53.504;49.426;2023-05-16T02:33:10;24.20;;;9.75;;
67191;SDS011;54120;53.504;49.426;2023-05-16T02:35:36;29.48;;;10.13;;
67191;SDS011;54120;53.504;49.426;2023-05-16T02:38:02;29.85;;;9.75;;
67191;SDS011;54120;53.504;49.426;2023-05-16T02:40:27;22.58;;;9.30;;
67191;SDS011;54120;53.504;49.426;2023-05-16T02:42:54;30.27;;;10.13;;
67191;SDS011;54120;53.504;49.426;2023-05-16T02:45:20;19.63;;;9.52;;
67191;SDS011;54120;53.504;49.426;2023-05-16T02:47:46;23.88;;;9.25;;
67191;SDS011;54120;53.504;49.426;2023-05-16T02:50:12;19.92;;;8.80;;
67191;SDS011;54120;53.504;49.426;2023-05-16T02:52:38;22.85;;;9.25;;
67191;SDS011;54120;53.504;49.426;2023-05-16T02:55:04;15.07;;;9.63;;
67191;SDS011;54120;53.504;49.426;2023-05-16T02:57:30;25.58;;;9.50;;
67191;SDS011;54120;53.504;49.426;2023-05-16T02:59:56;16.15;;;10.05;;
67191;SDS011;54120;53.504;49.426;2023-05-16T03:02:23;23.17;;;9.95;;
67191;SDS011;54120;53.504;49.426;2023-05-16T03:04:50;25.27;;;9.48;;
67191;SDS011;54120;53.504;49.426;2023-05-16T03:07:16;23.80;;;10.02;;
67191;SDS011;54120;53.504;49.426;2023-05-16T03:09:42;23.90;;;10.27;;
67191;SDS011;54120;53.504;49.426;2023-05-16T03:12:08;30.20;;;10.98;;
67191;SDS011;54120;53.504;49.426;2023-05-16T03:14:34;37.10;;;11.23;;
67191;SDS011;54120;53.504;49.426;2023-05-16T03:17:00;31.50;;;11.13;;
67191;SDS011;54120;53.504;49.426;2023-05-16T03:19:26;27.95;;;11.10;;
67191;SDS011;54120;53.504;49.426;2023-05-16T03:21:52;26.38;;;10.65;;
67191;SDS011;54120;53.504;49.426;2023-05-16T03:24:23;17.98;;;10.35;;
67191;SDS011;54120;53.504;49.426;2023-05-16T03:26:49;19.60;;;10.10;;
67191;SDS011;54120;53.504;49.426;2023-05-16T03:29:16;19.33;;;9.52;;
67191;SDS011;54120;53.504;49.426;2023-05-16T03:31:42;18.15;;;10.75;;
67191;SDS011;54120;53.504;49.426;2023-05-16T03:34:08;24.05;;;10.43;;
67191;SDS011;54120;53.504;49.426;2023-05-16T03:36:34;18.23;;;10.60;;
67191;SDS011;54120;53.504;49.426;2023-05-16T03:39:01;31.45;;;10.95;;
67191;SDS011;54120;53.504;49.426;2023-05-16T03:41:27;19.77;;;10.38;;
67191;SDS011;54120;53.504;49.426;2023-05-16T03:43:53;28.58;;;11.30;;
67191;SDS011;54120;53.504;49.426;2023-05-16T03:46:18;21.23;;;11.38;;
67191;SDS011;54120;53.504;49.426;2023-05-16T03:48:44;20.85;;;10.93;;
67191;SDS011;54120;53.504;49.426;2023-05-16T03:51:10;30.40;;;10.75;;
67191;SDS011;54120;53.504;49.426;2023-05-16T03:53:36;20.88;;;11.93;;
67191;SDS011;54120;53.504;49.426;2023-05-16T03:56:02;30.35;;;11.50;;
67191;SDS011;54120;53.504;49.426;2023-05-16T03:58:29;24.17;;;11.35;;
67191;SDS011;54120;53.504;49.426;2023-05-16T04:00:55;21.33;;;11.35;;
67191;SDS011;54120;53.504;49.426;2023-05-16T04:03:21;18.98;;;10.35;;
67191;SDS011;54120;53.504;49.426;2023-05-16T04:05:53;20.40;;;10.05;;
67191;SDS011;54120;53.504;49.426;2023-05-16T04:08:20;21.23;;;11.20;;
67191;SDS011;54120;53.504;49.426;2023-05-16T04:10:46;25.27;;;13.20;;
67191;SDS011;54120;53.504;49.426;2023-05-16T04:13:13;22.40;;;12.45;;
67191;SDS011;54120;53.504;49.426;2023-05-16T04:15:39;26.40;;;12.57;;
67191;SDS011;54120;53.504;49.426;2023-05-16T04:18:05;17.60;;;11.13;;
67191;SDS011;54120;53.504;49.426;2023-05-16T04:20:31;23.70;;;10.77;;
67191;SDS011;54120;53.504;49.426;2023-05-16T04:22:57;13.88;;;9.70;;
67191;SDS011;54120;53.504;49.426;2023-05-16T04:25:29;17.02;;;9.80;;
67191;SDS011;54120;53.504;49.426;2023-05-16T04:27:55;19.45;;;9.95;;
67191;SDS011;54120;53.504;49.426;2023-05-16T04:30:21;12.23;;;9.27;;
67191;SDS011;54120;53.504;49.426;2023-05-16T04:32:47;16.55;;;9.82;;
67191;SDS011;54120;53.504;49.426;2023-05-16T04:35:13;19.98;;;10.80;;
67191;SDS011;54120;53.504;49.426;2023-05-16T04:37:39;18.05;;;9.73;;
67191;SDS011;54120;53.504;49.426;2023-05-16T04:40:05;23.88;;;11.07;;
67191;SDS011;54120;53.504;49.426;2023-05-16T04:42:34;22.90;;;10.93;;
67191;SDS011;54120;53.504;49.426;2023-05-16T04:45:00;17.25;;;9.18;;
67191;SDS011;54120;53.504;49.426;2023-05-16T04:47:28;19.73;;;10.57;;
67191;SDS011;54120;53.504;49.426;2023-05-16T04:49:54;22.00;;;9.80;;
67191;SDS011;54120;53.504;49.426;2023-05-16T04:52:20;21.60;;;9.52;;
67191;SDS011;54120;53.504;49.426;2023-05-16T04:54:45;16.45;;;9.85;;
67191;SDS011;54120;53.504;49.426;2023-05-16T04:57:14;10.32;;;7.75;;
67191;SDS011;54120;53.504;49.426;2023-05-16T04:59:40;12.02;;;7.93;;
67191;SDS011;54120;53.504;49.426;2023-05-16T05:02:06;10.02;;;8.13;;
67191;SDS011;54120;53.504;49.426;2023-05-16T05:04:33;9.23;;;8.27;;
67191;SDS011;54120;53.504;49.426;2023-05-16T05:06:58;16.27;;;11.07;;
67191;SDS011;54120;53.504;49.426;2023-05-16T05:09:25;13.95;;;10.60;;
67191;SDS011;54120;53.504;49.426;2023-05-16T05:11:51;18.27;;;10.88;;
67191;SDS011;54120;53.504;49.426;2023-05-16T05:14:17;18.60;;;11.60;;
67191;SDS011;54120;53.504;49.426;2023-05-16T05:16:43;19.38;;;11.48;;
67191;SDS011;54120;53.504;49.426;2023-05-16T05:19:09;14.25;;;9.45;;
67191;SDS011;54120;53.504;49.426;2023-05-16T05:21:35;9.77;;;8.77;;
67191;SDS011;54120;53.504;49.426;2023-05-16T05:24:01;12.10;;;9.05;;
67191;SDS011;54120;53.504;49.426;2023-05-16T05:26:32;10.98;;;9.20;;
67191;SDS011;54120;53.504;49.426;2023-05-16T05:28:58;11.82;;;9.38;;
67191;SDS011;54120;53.504;49.426;2023-05-16T05:31:24;12.88;;;8.90;;
67191;SDS011;54120;53.504;49.426;2023-05-16T05:33:50;12.77;;;9.30;;
67191;SDS011;54120;53.504;49.426;2023-05-16T05:36:16;14.50;;;9.73;;
67191;SDS011;54120;53.504;49.426;2023-05-16T05:38:42;12.82;;;9.80;;
67191;SDS011;54120;53.504;49.426;2023-05-16T05:41:08;13.60;;;9.45;;
67191;SDS011;54120;53.504;49.426;2023-05-16T05:43:36;13.60;;;10.43;;
67191;SDS011;54120;53.504;49.426;2023-05-16T05:46:02;12.40;;;9.93;;
67191;SDS011;54120;53.504;49.426;2023-05-16T05:48:28;16.50;;;10.77;;
67191;SDS011;54120;53.504;49.426;2023-05-16T05:50:54;14.90;;;10.80;;
67191;SDS011;54120;53.504;49.426;2023-05-16T05:53:21;16.08;;;11.05;;
67191;SDS011;54120;53.504;49.426;2023-05-16T05:55:47;14.00;;;10.93;;
67191;SDS011;54120;53.504;49.426;2023-05-16T05:58:13;19.02;;;12.85;;
67191;SDS011;54120;53.504;49.426;2023-05-16T06:00:39;20.17;;;13.02;;
67191;SDS011;54120;53.504;49.426;2023-05-16T06:03:05;22.60;;;14.77;;
67191;SDS011;54120;53.504;49.426;2023-05-16T06:05:31;17.15;;;12.68;;
67191;SDS011;54120;53.504;49.426;2023-05-16T06:07:57;18.20;;;11.82;;
67191;SDS011;54120;53.504;49.426;2023-05-16T06:10:23;21.75;;;12.98;;
67191;SDS011;54120;53.504;49.426;2023-05-16T06:12:49;24.25;;;15.45;;
67191;SDS011;54120;53.504;49.426;2023-05-16T06:15:14;27.77;;;15.63;;
67191;SDS011;54120;53.504;49.426;2023-05-16T06:17:41;20.70;;;15.38;;
67191;SDS011;54120;53.504;49.426;2023-05-16T06:20:07;18.05;;;13.88;;
67191;SDS011;54120;53.504;49.426;2023-05-16T06:22:33;17.52;;;13.88;;
67191;SDS011;54120;53.504;49.426;2023-05-16T06:25:04;17.77;;;13.07;;
67191;SDS011;54120;53.504;49.426;2023-05-16T06:27:31;17.05;;;12.35;;
67191;SDS011;54120;53.504;49.426;2023-05-16T06:29:57;25.42;;;13.68;;
67191;SDS011;54120;53.504;49.426;2023-05-16T06:32:23;18.52;;;13.77;;
67191;SDS011;54120;53.504;49.426;2023-05-16T06:34:49;24.50;;;15.70;;
67191;SDS011;54120;53.504;49.426;2023-05-16T06:37:15;20.02;;;14.40;;
67191;SDS011;54120;53.504;49.426;2023-05-16T06:39:41;21.90;;;13.68;;
67191;SDS011;54120;53.504;49.426;2023-05-16T06:42:07;17.02;;;12.70;;
67191;SDS011;54120;53.504;49.426;2023-05-16T06:44:33;14.30;;;12.13;;
67191;SDS011;54120;53.504;49.426;2023-05-16T06:46:59;15.52;;;12.02;;
67191;SDS011;54120;53.504;49.426;2023-05-16T06:49:25;15.40;;;12.48;;
67191;SDS011;54120;53.504;49.426;2023-05-16T06:51:51;17.27;;;14.35;;
67191;SDS011;54120;53.504;49.426;2023-05-16T06:54:17;14.82;;;12.95;;
67191;SDS011;54120;53.504;49.426;2023-05-16T06:56:43;15.93;;;11.85;;
67191;SDS011;54120;53.504;49.426;2023-05-16T06:59:09;13.55;;;11.38;;
67191;SDS011;54120;53.504;49.426;2023-05-16T07:01:35;17.85;;;13.88;;
67191;SDS011;54120;53.504;49.426;2023-05-16T07:04:01;20.65;;;18.45;;
67191;SDS011;54120;53.504;49.426;2023-05-16T07:06:28;25.25;;;15.55;;
67191;SDS011;54120;53.504;49.426;2023-05-16T07:08:54;17.40;;;14.73;;
67191;SDS011;54120;53.504;49.426;2023-05-16T07:11:20;18.98;;;15.38;;
67191;SDS011;54120;53.504;49.426;2023-05-16T07:13:46;20.50;;;15.38;;
67191;SDS011;54120;53.504;49.426;2023-05-16T07:16:12;16.15;;;14.23;;
67191;SDS011;54120;53.504;49.426;2023-05-16T07:18:38;17.23;;;15.30;;
67191;SDS011;54120;53.504;49.426;2023-05-16T07:21:04;21.55;;;15.07;;
67191;SDS011;54120;53.504;49.426;2023-05-16T07:23:30;17.30;;;14.48;;
67191;SDS011;54120;53.504;49.426;2023-05-16T07:26:02;19.55;;;15.32;;
67191;SDS011;54120;53.504;49.426;2023-05-16T07:28:28;16.85;;;15.15;;
67191;SDS011;54120;53.504;49.426;2023-05-16T07:30:54;17.83;;;15.02;;
67191;SDS011;54120;53.504;49.426;2023-05-16T07:33:23;22.67;;;15.02;;
67191;SDS011;54120;53.504;49.426;2023-05-16T07:35:50;20.58;;;15.60;;
67191;SDS011;54120;53.504;49.426;2023-05-16T07:38:17;19.67;;;15.15;;
67191;SDS011;54120;53.504;49.426;2023-05-16T07:40:43;19.20;;;15.13;;
67191;SDS011;54120;53.504;49.426;2023-05-16T07:43:09;19.48;;;14.60;;
67191;SDS011;54120;53.504;49.426;2023-05-16T07:45:35;22.15;;;16.42;;
67191;SDS011;54120;53.504;49.426;2023-05-16T07:48:01;18.52;;;14.27;;
67191;SDS011;54120;53.504;49.426;2023-05-16T07:50:27;17.05;;;14.80;;
67191;SDS011;54120;53.504;49.426;2023-05-16T07:52:53;17.08;;;15.23;;
67191;SDS011;54120;53.504;49.426;2023-05-16T07:55:19;18.95;;;14.27;;
67191;SDS011;54120;53.504;49.426;2023-05-16T07:57:46;16.67;;;14.93;;
67191;SDS011;54120;53.504;49.426;2023-05-16T08:00:13;18.17;;;14.13;;
67191;SDS011;54120;53.504;49.426;2023-05-16T08:02:40;23.30;;;18.25;;
67191;SDS011;54120;53.504;49.426;2023-05-16T08:05:06;16.45;;;14.57;;
67191;SDS011;54120;53.504;49.426;2023-05-16T08:07:32;17.35;;;13.75;;
67191;SDS011;54120;53.504;49.426;2023-05-16T08:09:58;16.67;;;13.75;;
67191;SDS011;54120;53.504;49.426;2023-05-16T08:12:24;15.18;;;13.50;;
67191;SDS011;54120;53.504;49.426;2023-05-16T08:14:51;15.50;;;13.30;;
67191;SDS011;54120;53.504;49.426;2023-05-16T08:17:17;16.75;;;13.98;;
67191;SDS011;54120;53.504;49.426;2023-05-16T08:19:43;13.75;;;12.35;;
67191;SDS011;54120;53.504;49.426;2023-05-16T08:22:10;14.98;;;13.27;;
67191;SDS011;54120;53.504;49.426;2023-05-16T08:24:42;14.23;;;12.70;;
67191;SDS011;54120;53.504;49.426;2023-05-16T08:27:08;16.35;;;13.10;;
67191;SDS011;54120;53.504;49.426;2023-05-16T08:29:35;14.43;;;12.93;;
67191;SDS011;54120;53.504;49.426;2023-05-16T08:32:01;16.20;;;13.40;;
67191;SDS011;54120;53.504;49.426;2023-05-16T08:34:29;19.23;;;13.93;;
67191;SDS011;54120;53.504;49.426;2023-05-16T08:36:56;18.15;;;13.70;;
67191;SDS011;54120;53.504;49.426;2023-05-16T08:39:22;15.52;;;13.20;;
67191;SDS011;54120;53.504;49.426;2023-05-16T08:41:48;15.30;;;13.52;;
67191;SDS011;54120;53.504;49.426;2023-05-16T08:44:14;16.77;;;14.02;;
67191;SDS011;54120;53.504;49.426;2023-05-16T08:46:48;19.45;;;14.40;;
67191;SDS011;54120;53.504;49.426;2023-05-16T08:49:17;18.08;;;14.02;;
67191;SDS011;54120;53.504;49.426;2023-05-16T08:51:45;18.17;;;14.88;;
67191;SDS011;54120;53.504;49.426;2023-05-16T08:54:12;27.27;;;15.90;;
67191;SDS011;54120;53.504;49.426;2023-05-16T08:56:40;18.20;;;15.57;;
67191;SDS011;54120;53.504;49.426;2023-05-16T08:59:07;18.52;;;14.57;;
67191;SDS011;54120;53.504;49.426;2023-05-16T09:01:33;22.25;;;15.07;;
67191;SDS011;54120;53.504;49.426;2023-05-16T09:04:00;16.45;;;14.77;;
67191;SDS011;54120;53.504;49.426;2023-05-16T09:06:28;17.33;;;15.48;;
67191;SDS011;54120;53.504;49.426;2023-05-16T09:08:54;19.88;;;15.40;;
67191;SDS011;54120;53.504;49.426;2023-05-16T09:11:20;19.90;;;17.10;;
67191;SDS011;54120;53.504;49.426;2023-05-16T09:13:47;20.60;;;17.13;;
67191;SDS011;54120;53.504;49.426;2023-05-16T09:16:14;19.67;;;17.40;;
67191;SDS011;54120;53.504;49.426;2023-05-16T09:19:05;20.20;;;17.40;;
67191;SDS011;54120;53.504;49.426;2023-05-16T09:21:31;24.48;;;17.95;;
67191;SDS011;54120;53.504;49.426;2023-05-16T09:24:06;24.23;;;19.70;;
67191;SDS011;54120;53.504;49.426;2023-05-16T09:26:38;23.65;;;20.23;;
67191;SDS011;54120;53.504;49.426;2023-05-16T09:29:11;20.50;;;17.65;;
67191;SDS011;54120;53.504;49.426;2023-05-16T09:31:37;19.85;;;16.85;;
67191;SDS011;54120;53.504;49.426;2023-05-16T09:34:06;23.45;;;18.35;;
67191;SDS011;54120;53.504;49.426;2023-05-16T09:36:33;23.08;;;19.05;;
67191;SDS011;54120;53.504;49.426;2023-05-16T09:38:59;22.20;;;18.20;;
67191;SDS011;54120;53.504;49.426;2023-05-16T09:41:26;25.50;;;18.88;;
67191;SDS011;54120;53.504;49.426;2023-05-16T09:43:52;28.90;;;20.27;;
67191;SDS011;54120;53.504;49.426;2023-05-16T09:46:18;33.15;;;20.80;;
67191;SDS011;54120;53.504;49.426;2023-05-16T09:48:50;33.50;;;22.65;;
67191;SDS011;54120;53.504;49.426;2023-05-16T09:51:16;27.67;;;21.33;;
67191;SDS011;54120;53.504;49.426;2023-05-16T09:53:46;37.17;;;22.20;;
67191;SDS011;54120;53.504;49.426;2023-05-16T09:56:13;28.90;;;22.50;;
67191;SDS011;54120;53.504;49.426;2023-05-16T09:58:41;38.38;;;29.33;;
67191;SDS011;54120;53.504;49.426;2023-05-16T10:01:08;27.10;;;21.67;;
67191;SDS011;54120;53.504;49.426;2023-05-16T10:03:39;26.77;;;20.83;;
67191;SDS011;54120;53.504;49.426;2023-05-16T10:06:06;29.63;;;21.73;;
67191;SDS011;54120;53.504;49.426;2023-05-16T10:08:33;25.02;;;20.95;;
67191;SDS011;54120;53.504;49.426;2023-05-16T10:11:02;20.98;;;15.30;;
67191;SDS011;54120;53.504;49.426;2023-05-16T10:13:29;21.50;;;15.73;;
67191;SDS011;54120;53.504;49.426;2023-05-16T10:15:57;22.10;;;14.77;;
67191;SDS011;54120;53.504;49.426;2023-05-16T10:18:33;19.27;;;14.48;;
67191;SDS011;54120;53.504;49.426;2023-05-16T10:21:04;21.48;;;14.07;;
67191;SDS011;54120;53.504;49.426;2023-05-16T10:23:32;19.38;;;14.85;;
67191;SDS011;54120;53.504;49.426;2023-05-16T10:26:05;14.50;;;12.90;;
67191;SDS011;54120;53.504;49.426;2023-05-16T10:28:33;15.25;;;13.73;;
67191;SDS011;54120;53.504;49.426;2023-05-16T10:31:00;16.58;;;14.13;;
67191;SDS011;54120;53.504;49.426;2023-05-16T10:33:27;18.00;;;13.68;;
67191;SDS011;54120;53.504;49.426;2023-05-16T10:35:54;20.13;;;14.70;;
67191;SDS011;54120;53.504;49.426;2023-05-16T10:38:20;18.48;;;15.00;;
67191;SDS011;54120;53.504;49.426;2023-05-16T10:40:48;17.88;;;15.80;;
67191;SDS011;54120;53.504;49.426;2023-05-16T10:43:28;16.90;;;15.00;;
67191;SDS011;54120;53.504;49.426;2023-05-16T10:45:55;17.13;;;15.07;;
67191;SDS011;54120;53.504;49.426;2023-05-16T10:48:33;16.48;;;14.63;;
67191;SDS011;54120;53.504;49.426;2023-05-16T10:51:01;17.48;;;15.63;;
67191;SDS011;54120;53.504;49.426;2023-05-16T10:53:29;17.35;;;15.57;;
67191;SDS011;54120;53.504;49.426;2023-05-16T11:06:27;15.23;;;12.57;;
67191;SDS011;54120;53.504;49.426;2023-05-16T11:14:20;20.90;;;11.77;;
67191;SDS011;54120;53.504;49.426;2023-05-16T11:17:00;12.30;;;10.98;;
67191;SDS011;54120;53.504;49.426;2023-05-16T11:19:44;15.38;;;13.23;;
67191;SDS011;54120;53.504;49.426;2023-05-16T11:22:11;18.25;;;13.73;;
67191;SDS011;54120;53.504;49.426;2023-05-16T11:24:50;16.60;;;13.68;;
67191;SDS011;54120;53.504;49.426;2023-05-16T11:27:28;21.27;;;16.52;;
67191;SDS011;54120;53.504;49.426;2023-05-16T11:32:35;20.77;;;17.42;;
67191;SDS011;54120;53.504;49.426;2023-05-16T11:35:03;24.23;;;18.33;;
67191;SDS011;54120;53.504;49.426;2023-05-16T11:37:30;22.75;;;18.15;;
67191;SDS011;54120;53.504;49.426;2023-05-16T11:39:59;25.83;;;17.63;;
67191;SDS011;54120;53.504;49.426;2023-05-16T11:42:29;23.73;;;18.88;;
67191;SDS011;54120;53.504;49.426;2023-05-16T11:45:08;24.20;;;17.23;;
67191;SDS011;54120;53.504;49.426;2023-05-16T11:47:36;25.23;;;17.73;;
67191;SDS011;54120;53.504;49.426;2023-05-16T11:50:10;32.42;;;17.90;;
67191;SDS011;54120;53.504;49.426;2023-05-16T11:52:38;17.75;;;15.85;;
67191;SDS011;54120;53.504;49.426;2023-05-16T11:55:07;20.48;;;17.25;;
67191;SDS011;54120;53.504;49.426;2023-05-16T11:57:36;20.65;;;18.10;;
67191;SDS011;54120;53.504;49.426;2023-05-16T12:00:03;22.88;;;18.35;;
67191;SDS011;54120;53.504;49.426;2023-05-16T12:02:38;21.15;;;18.83;;
67191;SDS011;54120;53.504;49.426;2023-05-16T12:05:07;27.45;;;20.15;;
67191;SDS011;54120;53.504;49.426;2023-05-16T12:07:42;25.17;;;19.25;;
67191;SDS011;54120;53.504;49.426;2023-05-16T12:10:10;23.98;;;19.65;;
67191;SDS011;54120;53.504;49.426;2023-05-16T12:12:38;22.42;;;19.35;;
67191;SDS011;54120;53.504;49.426;2023-05-16T12:15:09;21.83;;;18.33;;
67191;SDS011;54120;53.504;49.426;2023-05-16T12:17:38;21.35;;;18.55;;
67191;SDS011;54120;53.504;49.426;2023-05-16T12:20:06;23.65;;;19.83;;
67191;SDS011;54120;53.504;49.426;2023-05-16T12:22:45;24.40;;;20.00;;
67191;SDS011;54120;53.504;49.426;2023-05-16T12:25:26;24.17;;;19.75;;
67191;SDS011;54120;53.504;49.426;2023-05-16T12:27:55;26.95;;;20.52;;
67191;SDS011;54120;53.504;49.426;2023-05-16T12:30:23;28.00;;;20.58;;
67191;SDS011;54120;53.504;49.426;2023-05-16T12:33:08;24.45;;;19.63;;
67191;SDS011;54120;53.504;49.426;2023-05-16T12:35:39;26.90;;;19.77;;
67191;SDS011;54120;53.504;49.426;2023-05-16T12:38:07;24.67;;;19.42;;
67191;SDS011;54120;53.504;49.426;2023-05-16T12:40:38;28.10;;;20.42;;
67191;SDS011;54120;53.504;49.426;2023-05-16T12:43:38;27.50;;;20.90;;
67191;SDS011;54120;53.504;49.426;2023-05-16T12:45:57;27.00;;;20.58;;
67191;SDS011;54120;53.504;49.426;2023-05-16T12:48:28;27.38;;;19.55;;
67191;SDS011;54120;53.504;49.426;2023-05-16T12:51:07;25.80;;;18.80;;
67191;SDS011;54120;53.504;49.426;2023-05-16T12:53:44;24.17;;;18.73;;
67191;SDS011;54120;53.504;49.426;2023-05-16T12:56:13;28.05;;;19.10;;
67191;SDS011;54120;53.504;49.426;2023-05-16T12:58:40;24.00;;;19.70;;
67191;SDS011;54120;53.504;49.426;2023-05-16T13:01:07;23.15;;;19.02;;
67191;SDS011;54120;53.504;49.426;2023-05-16T13:03:33;23.13;;;20.40;;
67191;SDS011;54120;53.504;49.426;2023-05-16T13:06:00;24.75;;;18.80;;
67191;SDS011;54120;53.504;49.426;2023-05-16T13:08:28;24.13;;;19.35;;
67191;SDS011;54120;53.504;49.426;2023-05-16T13:10:54;23.58;;;19.58;;
67191;SDS011;54120;53.504;49.426;2023-05-16T13:13:21;22.95;;;19.27;;
67191;SDS011;54120;53.504;49.426;2023-05-16T13:15:47;20.98;;;17.23;;
67191;SDS011;54120;53.504;49.426;2023-05-16T13:18:13;19.58;;;14.98;;
67191;SDS011;54120;53.504;49.426;2023-05-16T13:20:39;20.27;;;16.85;;
67191;SDS011;54120;53.504;49.426;2023-05-16T13:23:06;22.52;;;16.52;;
67191;SDS011;54120;53.504;49.426;2023-05-16T13:25:37;20.08;;;14.35;;
67191;SDS011;54120;53.504;49.426;2023-05-16T13:28:03;22.83;;;15.48;;
67191;SDS011;54120;53.504;49.426;2023-05-16T13:30:30;21.83;;;15.50;;
67191;SDS011;54120;53.504;49.426;2023-05-16T13:32:56;23.90;;;15.43;;
67191;SDS011;54120;53.504;49.426;2023-05-16T13:35:23;28.83;;;16.13;;
67191;SDS011;54120;53.504;49.426;2023-05-16T13:37:49;22.20;;;16.27;;
67191;SDS011;54120;53.504;49.426;2023-05-16T13:40:15;20.27;;;16.05;;
67191;SDS011;54120;53.504;49.426;2023-05-16T13:42:41;18.75;;;14.38;;
67191;SDS011;54120;53.504;49.426;2023-05-16T13:45:07;20.65;;;13.77;;
67191;SDS011;54120;53.504;49.426;2023-05-16T13:47:34;22.15;;;14.43;;
67191;SDS011;54120;53.504;49.426;2023-05-16T13:50:01;22.58;;;14.68;;
67191;SDS011;54120;53.504;49.426;2023-05-16T13:52:30;18.55;;;13.43;;
67191;SDS011;54120;53.504;49.426;2023-05-16T13:54:56;20.27;;;15.65;;
67191;SDS011;54120;53.504;49.426;2023-05-16T13:57:22;22.08;;;17.00;;
67191;SDS011;54120;53.504;49.426;2023-05-16T13:59:48;22.55;;;16.23;;
67191;SDS011;54120;53.504;49.426;2023-05-16T14:02:14;23.63;;;15.80;;
67191;SDS011;54120;53.504;49.426;2023-05-16T14:04:40;20.17;;;14.77;;
67191;SDS011;54120;53.504;49.426;2023-05-16T14:07:06;19.75;;;15.77;;
67191;SDS011;54120;53.504;49.426;2023-05-16T14:09:32;23.08;;;15.27;;
67191;SDS011;54120;53.504;49.426;2023-05-16T14:11:59;23.27;;;16.98;;
67191;SDS011;54120;53.504;49.426;2023-05-16T14:14:27;20.10;;;15.32;;
67191;SDS011;54120;53.504;49.426;2023-05-16T14:16:53;28.77;;;18.30;;
67191;SDS011;54120;53.504;49.426;2023-05-16T14:19:19;26.38;;;18.92;;
67191;SDS011;54120;53.504;49.426;2023-05-16T14:21:45;26.70;;;17.92;;
67191;SDS011;54120;53.504;49.426;2023-05-16T14:24:11;30.08;;;18.27;;
67191;SDS011;54120;53.504;49.426;2023-05-16T14:26:42;25.23;;;17.83;;
67191;SDS011;54120;53.504;49.426;2023-05-16T14:29:09;24.55;;;16.80;;
67191;SDS011;54120;53.504;49.426;2023-05-16T14:31:35;26.63;;;17.73;;
67191;SDS011;54120;53.504;49.426;2023-05-16T14:34:02;20.15;;;17.05;;
67191;SDS011;54120;53.504;49.426;2023-05-16T14:36:28;22.40;;;17.90;;
67191;SDS011;54120;53.504;49.426;2023-05-16T14:38:54;22.60;;;17.90;;
67191;SDS011;54120;53.504;49.426;2023-05-16T14:41:20;21.20;;;18.33;;
67191;SDS011;54120;53.504;49.426;2023-05-16T14:43:46;21.35;;;17.52;;
67191;SDS011;54120;53.504;49.426;2023-05-16T14:46:13;21.27;;;18.17;;
67191;SDS011;54120;53.504;49.426;2023-05-16T14:48:39;22.88;;;18.10;;